Time;durP1;ratioP1;P1;durP2;ratioP2;P2;SDS_P1;SDS_P2;PMS_P1;PMS_P2;Temp;Humidity;BMP_temperature;BMP_pressure;BME280_temperature;BME280_humidity;BME280_pressure;Samples;Min_cycle;Max_cycle;Signal;HPM_P1;HPM_P2
2022/05/31 00:00:36;;;;;;;;;5.75;2.75;;;;;17.45;38.96;100781.41;4958757;28;45442;-68
2022/05/31 00:03:05;;;;;;;;;4.25;3.50;;;;;17.46;38.88;100777.78;4956325;28;47121;-68
2022/05/31 00:05:31;;;;;;;;;5.00;5.00;;;;;17.48;38.81;100783.94;4948049;28;46742;-68
2022/05/31 00:07:56;;;;;;;;;6.50;5.75;;;;;17.37;38.79;100779.22;4956610;28;45580;-68
2022/05/31 00:10:22;;;;;;;;;5.25;5.25;;;;;17.39;38.84;100779.97;4956919;28;45691;-68
2022/05/31 00:12:48;;;;;;;;;4.50;4.50;;;;;17.43;39.02;100777.97;4958480;28;46253;-68
2022/05/31 00:15:15;;;;;;;;;4.50;4.50;;;;;17.43;39.15;100783.34;4958326;28;45317;-68
2022/05/31 00:17:41;;;;;;;;;4.50;4.50;;;;;17.46;39.13;100779.59;4957005;28;45467;-68
2022/05/31 00:20:10;;;;;;;;;4.75;4.50;;;;;17.48;39.07;100783.09;4958302;28;45490;-68
2022/05/31 00:22:36;;;;;;;;;5.75;4.25;;;;;17.49;38.88;100774.91;4940051;28;45497;-68
2022/05/31 00:25:04;;;;;;;;;4.25;4.25;;;;;17.44;39.15;100765.31;4948938;28;45732;-68
2022/05/31 00:27:29;;;;;;;;;4.00;3.50;;;;;17.43;39.03;100763.59;4958038;28;45410;-68
2022/05/31 00:29:54;;;;;;;;;3.50;3.50;;;;;17.47;39.24;100773.25;4957600;28;45289;-68
2022/05/31 00:32:24;;;;;;;;;3.00;3.00;;;;;17.47;39.22;100770.53;4957381;28;45977;-68
2022/05/31 00:34:51;;;;;;;;;5.50;5.50;;;;;17.43;39.13;100767.16;4958058;28;45336;-68
2022/05/31 00:37:17;;;;;;;;;3.00;3.00;;;;;17.39;39.30;100768.28;4958588;28;45426;-68
2022/05/31 00:39:43;;;;;;;;;3.50;3.50;;;;;17.33;39.21;100774.94;4944805;28;45609;-68
2022/05/31 00:42:15;;;;;;;;;7.75;4.25;;;;;17.30;39.26;100775.13;4943395;28;45980;-68
2022/05/31 00:44:41;;;;;;;;;2.75;2.50;;;;;17.30;39.35;100777.81;4952738;28;45611;-68
2022/05/31 00:47:25;;;;;;;;;4.25;3.25;;;;;17.26;39.44;100776.28;4949253;28;45585;-68
2022/05/31 00:49:56;;;;;;;;;3.00;3.00;;;;;17.27;39.12;100783.38;4957434;28;45229;-68
2022/05/31 00:52:53;;;;;;;;;2.25;1.75;;;;;17.29;39.61;100781.50;4957481;28;46064;-68
2022/05/31 00:55:37;;;;;;;;;1.50;1.50;;;;;17.24;39.33;100772.81;4961034;28;45627;-68
2022/05/31 00:58:07;;;;;;;;;0.00;0.00;;;;;17.22;39.70;100781.00;4933017;28;45317;-68
2022/05/31 01:00:34;;;;;;;;;3.25;2.00;;;;;17.25;39.45;100774.53;4956429;28;45397;-68
2022/05/31 01:03:00;;;;;;;;;3.00;3.00;;;;;17.20;39.36;100765.84;4940846;28;46293;-68
2022/05/31 01:05:26;;;;;;;;;1.50;1.50;;;;;17.23;39.52;100781.84;4951336;28;45363;-68
2022/05/31 01:07:52;;;;;;;;;2.50;2.50;;;;;17.19;39.62;100773.06;4957689;28;45512;-68
2022/05/31 01:10:18;;;;;;;;;2.25;2.25;;;;;17.18;39.38;100767.78;4957545;28;45395;-68
2022/05/31 01:12:47;;;;;;;;;2.00;1.50;;;;;17.17;39.50;100764.22;4955819;28;46156;-68
2022/05/31 01:15:15;;;;;;;;;2.00;2.00;;;;;17.18;39.59;100767.78;4958494;28;45495;-68
2022/05/31 01:17:42;;;;;;;;;2.00;1.25;;;;;17.22;39.85;100770.19;4960561;28;45339;-68
2022/05/31 01:20:13;;;;;;;;;2.50;2.25;;;;;17.19;39.26;100767.69;4960674;28;45357;-68
2022/05/31 01:22:51;;;;;;;;;3.50;2.25;;;;;17.13;39.48;100765.34;4938170;28;45739;-68
2022/05/31 01:25:25;;;;;;;;;1.75;1.75;;;;;17.14;39.56;100767.09;4953130;28;45745;-68
2022/05/31 01:28:32;;;;;;;;;1.00;1.00;;;;;17.12;39.57;100768.13;4960849;28;45413;-68
2022/05/31 01:31:05;;;;;;;;;3.00;3.00;;;;;17.08;39.56;100761.19;4927962;28;45453;-68
2022/05/31 01:34:04;;;;;;;;;2.00;2.00;;;;;17.07;39.90;100760.31;4959931;28;45284;-68
2022/05/31 01:36:37;;;;;;;;;3.00;2.00;;;;;17.07;39.75;100759.44;4958173;28;45384;-68
2022/05/31 01:39:10;;;;;;;;;2.00;2.00;;;;;17.11;39.76;100764.56;4951001;28;45503;-68
2022/05/31 01:41:44;;;;;;;;;2.25;1.00;;;;;17.14;39.90;100764.41;4937162;28;45203;-68
2022/05/31 01:44:13;;;;;;;;;2.25;2.25;;;;;17.16;39.77;100767.88;4944269;28;47141;-68
2022/05/31 01:46:39;;;;;;;;;2.75;1.50;;;;;17.13;39.91;100759.09;4947562;28;45474;-68
2022/05/31 01:49:10;;;;;;;;;1.50;1.50;;;;;17.20;40.31;100766.69;4954126;28;45406;-68
2022/05/31 01:51:38;;;;;;;;;2.25;2.00;;;;;17.17;39.93;100758.81;4947873;28;45514;-68
2022/05/31 01:54:04;;;;;;;;;1.75;1.75;;;;;17.21;40.45;100759.50;4941680;28;45565;-68
2022/05/31 01:56:31;;;;;;;;;1.75;1.75;;;;;17.20;40.41;100761.31;4953759;28;45295;-68
2022/05/31 01:58:58;;;;;;;;;1.75;1.75;;;;;17.21;40.25;100762.19;4943026;28;45305;-68
2022/05/31 02:01:24;;;;;;;;;1.50;1.50;;;;;17.14;39.65;100763.50;4938606;28;45548;-68
2022/05/31 02:03:50;;;;;;;;;1.25;1.25;;;;;17.14;39.57;100771.59;4937816;28;46333;-68
2022/05/31 02:06:27;;;;;;;;;3.75;2.50;;;;;17.13;39.89;100773.44;4944107;28;45337;-68
2022/05/31 02:08:53;;;;;;;;;2.25;2.25;;;;;17.13;39.73;100780.66;4945274;28;45501;-68
2022/05/31 02:11:18;;;;;;;;;2.25;1.25;;;;;17.09;39.92;100769.19;4942832;28;45328;-68
2022/05/31 02:13:45;;;;;;;;;2.25;1.75;;;;;17.17;40.03;100782.22;4944871;28;45416;-68
2022/05/31 02:16:11;;;;;;;;;2.00;2.00;;;;;17.20;40.33;100790.13;4942985;28;45530;-68
2022/05/31 02:21:20;;;;;;;;;2.00;2.00;;;;;17.19;40.05;100778.47;4942797;28;45371;-68
2022/05/31 02:23:46;;;;;;;;;1.50;1.50;;;;;17.19;40.53;100780.28;4944783;28;46021;-68
2022/05/31 02:26:11;;;;;;;;;1.50;1.50;;;;;17.15;40.45;100765.25;4941851;28;45289;-68
2022/05/31 02:28:40;;;;;;;;;2.50;2.50;;;;;17.21;40.24;100767.59;4944783;28;45542;-68
2022/05/31 02:31:05;;;;;;;;;1.50;1.50;;;;;17.19;40.33;100769.50;4953604;28;45233;-68
2022/05/31 02:33:31;;;;;;;;;4.00;2.75;;;;;17.21;40.50;100784.63;4943874;28;46313;-68
2022/05/31 02:35:56;;;;;;;;;1.50;1.50;;;;;17.22;40.37;100763.91;4953970;28;45386;-68
2022/05/31 02:38:22;;;;;;;;;2.00;1.25;;;;;17.17;40.00;100772.31;4942847;28;45483;-68
2022/05/31 02:40:47;;;;;;;;;1.75;1.75;;;;;17.22;40.36;100775.59;4954551;28;45434;-68
2022/05/31 02:43:12;;;;;;;;;1.50;1.50;;;;;17.22;40.42;100780.09;4959069;28;45678;-68
2022/05/31 02:45:38;;;;;;;;;1.25;1.25;;;;;17.24;40.66;100783.59;4959353;28;45339;-68
2022/05/31 02:48:04;;;;;;;;;2.25;2.25;;;;;17.24;40.82;100780.91;4958819;28;45678;-68
2022/05/31 02:50:29;;;;;;;;;2.50;2.50;;;;;17.22;40.77;100769.31;4959641;28;45444;-68
2022/05/31 02:52:54;;;;;;;;;1.50;1.50;;;;;17.26;40.58;100770.88;4954599;28;45359;-67
2022/05/31 02:55:20;;;;;;;;;2.50;2.00;;;;;17.27;40.46;100774.44;4951172;28;45373;-68
2022/05/31 02:57:45;;;;;;;;;1.50;1.50;;;;;17.21;40.39;100767.59;4946624;28;45477;-68
2022/05/31 03:00:12;;;;;;;;;2.50;2.50;;;;;17.26;40.40;100765.50;4934741;28;45430;-68
2022/05/31 03:02:38;;;;;;;;;3.00;2.50;;;;;17.21;40.35;100759.50;4951375;28;45187;-68
2022/05/31 03:05:04;;;;;;;;;2.50;2.50;;;;;17.26;40.28;100765.50;4946995;28;45331;-68
2022/05/31 03:07:29;;;;;;;;;1.50;1.50;;;;;17.22;40.46;100756.72;4954809;28;45506;-68
2022/05/31 03:09:55;;;;;;;;;0.75;0.75;;;;;17.24;40.46;100756.63;4951598;28;45461;-68
2022/05/31 03:12:23;;;;;;;;;1.50;1.50;;;;;17.18;40.55;100744.34;4958840;28;46267;-68
2022/05/31 03:14:59;;;;;;;;;2.50;1.75;;;;;17.21;41.00;100754.09;4958466;28;45497;-68
2022/05/31 03:17:35;;;;;;;;;2.00;1.00;;;;;17.25;40.74;100763.75;4957665;28;45336;-68
2022/05/31 03:20:08;;;;;;;;;1.75;1.75;;;;;17.28;41.09;100768.97;4959098;28;45418;-68
2022/05/31 03:22:39;;;;;;;;;2.00;2.00;;;;;17.28;40.93;100779.75;4933482;28;45672;-68
2022/05/31 03:25:11;;;;;;;;;2.50;1.50;;;;;17.27;40.90;100778.00;4940619;28;45331;-68
2022/05/31 03:27:36;;;;;;;;;1.50;1.50;;;;;17.32;40.78;100772.34;4938599;28;46627;-68
2022/05/31 03:30:03;;;;;;;;;2.50;2.50;;;;;17.28;41.01;100766.25;4948983;28;45358;-68
2022/05/31 03:32:30;;;;;;;;;1.50;1.50;;;;;17.29;40.96;100762.59;4958405;28;45321;-68
2022/05/31 03:34:56;;;;;;;;;2.50;2.50;;;;;17.29;40.81;100765.31;4947352;28;45213;-68
2022/05/31 03:37:22;;;;;;;;;2.25;1.50;;;;;17.29;40.64;100753.63;4958823;28;45338;-68
2022/05/31 03:39:47;;;;;;;;;2.25;1.75;;;;;17.27;40.95;100756.41;4958982;28;45357;-68
2022/05/31 03:42:12;;;;;;;;;2.25;2.25;;;;;17.23;40.58;100752.19;4958857;28;46016;-68
2022/05/31 03:44:38;;;;;;;;;2.25;1.50;;;;;17.23;40.20;100757.56;4939904;28;45415;-68
2022/05/31 03:47:04;;;;;;;;;2.50;2.50;;;;;17.23;40.30;100760.28;4941664;28;45292;-68
2022/05/31 03:49:31;;;;;;;;;1.25;1.25;;;;;17.27;40.48;100764.50;4944278;28;45450;-68
2022/05/31 03:51:57;;;;;;;;;3.75;3.75;;;;;17.27;40.87;100772.59;4946800;28;46182;-68
2022/05/31 03:54:23;;;;;;;;;2.50;2.50;;;;;17.28;40.87;100768.09;4942482;28;45308;-68
2022/05/31 03:56:48;;;;;;;;;2.50;2.50;;;;;17.22;40.76;100766.63;4951478;28;45194;-68
2022/05/31 03:59:13;;;;;;;;;5.00;3.75;;;;;17.24;40.92;100778.22;4949975;28;45220;-68
2022/05/31 04:01:39;;;;;;;;;1.25;1.25;;;;;17.26;40.73;100781.69;4940584;28;45643;-68
2022/05/31 04:04:04;;;;;;;;;4.50;3.25;;;;;17.20;41.02;100771.25;4959813;28;45344;-68
2022/05/31 04:06:31;;;;;;;;;3.50;2.75;;;;;17.23;40.98;100762.97;4941739;28;45340;-68
2022/05/31 04:08:56;;;;;;;;;4.50;3.50;;;;;17.16;41.14;100758.91;4941349;28;45341;-68
2022/05/31 04:11:21;;;;;;;;;3.00;3.00;;;;;17.15;41.17;100749.94;4941424;28;47556;-68
2022/05/31 04:13:47;;;;;;;;;2.50;2.50;;;;;17.19;40.72;100759.59;4944141;28;45371;-68
2022/05/31 04:16:15;;;;;;;;;3.00;3.00;;;;;17.19;40.75;100758.69;4941714;28;45339;-68
2022/05/31 04:18:41;;;;;;;;;2.00;2.00;;;;;17.14;40.73;100750.03;4936333;28;45551;-68
2022/05/31 04:21:10;;;;;;;;;5.00;2.50;;;;;17.16;40.34;100751.69;4937143;28;45392;-68
2022/05/31 04:26:21;;;;;;;;;3.50;3.50;;;;;17.10;40.35;100753.88;4941056;28;45334;-68
2022/05/31 04:28:46;;;;;;;;;4.00;4.00;;;;;17.08;40.67;100756.66;4944148;28;45721;-68
2022/05/31 04:31:12;;;;;;;;;4.50;3.50;;;;;17.05;40.82;100754.13;4952348;28;46149;-68
2022/05/31 04:33:37;;;;;;;;;3.25;2.25;;;;;17.12;40.93;100758.19;4959450;28;45284;-68
2022/05/31 04:36:07;;;;;;;;;2.25;2.25;;;;;17.13;41.11;100756.41;4941134;28;45253;-68
2022/05/31 04:38:33;;;;;;;;;3.00;3.00;;;;;17.09;41.36;100753.00;4940467;28;46094;-68
2022/05/31 04:40:58;;;;;;;;;5.00;4.00;;;;;17.12;41.39;100752.81;4942417;28;45335;-68
2022/05/31 04:43:24;;;;;;;;;5.00;2.50;;;;;17.13;41.61;100761.78;4944846;28;45676;-68
2022/05/31 04:45:50;;;;;;;;;3.25;3.25;;;;;17.14;41.74;100767.09;4952676;28;45376;-68
2022/05/31 04:48:15;;;;;;;;;3.75;3.75;;;;;17.12;42.06;100765.44;4957501;28;45343;-68
2022/05/31 04:50:41;;;;;;;;;4.00;4.00;;;;;17.15;41.98;100773.34;4960548;28;45279;-68
2022/05/31 04:53:06;;;;;;;;;5.50;4.75;;;;;17.09;41.84;100765.59;4953433;28;45263;-68
2022/05/31 04:55:33;;;;;;;;;3.75;3.00;;;;;17.08;41.95;100772.84;4951142;28;45485;-69
2022/05/31 04:57:58;;;;;;;;;5.00;4.50;;;;;17.02;42.26;100762.41;4960133;28;45306;-68
2022/05/31 05:00:23;;;;;;;;;4.00;3.25;;;;;17.07;42.41;100770.22;4934896;28;45574;-68
2022/05/31 05:02:49;;;;;;;;;7.75;5.00;;;;;17.06;42.43;100776.56;4948929;28;45714;-68
2022/05/31 05:05:14;;;;;;;;;5.50;4.50;;;;;17.04;42.23;100774.84;4934019;28;45565;-68
2022/05/31 05:07:40;;;;;;;;;6.50;5.50;;;;;17.01;42.07;100764.25;4953228;28;45568;-68
2022/05/31 05:10:07;;;;;;;;;3.50;3.50;;;;;17.05;42.39;100778.41;4960190;28;45875;-68
2022/05/31 05:12:33;;;;;;;;;11.75;11.00;;;;;17.05;42.29;100778.41;4947688;28;45240;-68
2022/05/31 05:14:59;;;;;;;;;12.50;11.50;;;;;17.06;42.22;100785.56;4959760;28;45386;-68
2022/05/31 05:17:25;;;;;;;;;5.25;4.50;;;;;17.06;42.11;100785.56;4949852;28;45284;-68
2022/05/31 05:19:51;;;;;;;;;4.25;4.25;;;;;17.05;42.43;100783.81;4941581;28;46343;-68
2022/05/31 05:22:16;;;;;;;;;3.50;3.50;;;;;17.01;42.29;100776.88;4964510;28;45311;-68
2022/05/31 05:24:41;;;;;;;;;4.00;4.00;;;;;17.01;42.49;100777.72;4942759;28;45252;-68
2022/05/31 05:27:07;;;;;;;;;4.00;3.50;;;;;17.09;42.49;100792.56;4957727;28;45439;-68
2022/05/31 05:32:17;;;;;;;;;3.50;3.50;;;;;17.09;42.64;100803.38;4960157;28;45506;-68
2022/05/31 05:34:42;;;;;;;;;2.50;2.50;;;;;17.06;42.34;100795.44;4960406;28;45502;-68
2022/05/31 05:37:07;;;;;;;;;4.00;4.00;;;;;17.06;42.40;100792.75;4947290;28;45439;-68
2022/05/31 05:39:33;;;;;;;;;4.00;3.75;;;;;17.08;42.40;100802.50;4952193;28;46316;-68
2022/05/31 05:41:58;;;;;;;;;4.00;4.00;;;;;17.09;42.37;100804.25;4958914;28;45441;-68
2022/05/31 05:44:25;;;;;;;;;4.75;2.75;;;;;17.11;42.43;100801.47;4960286;28;45319;-68
2022/05/31 05:46:51;;;;;;;;;5.00;3.00;;;;;17.13;42.26;100804.94;4960057;28;45362;-68
2022/05/31 05:49:16;;;;;;;;;3.75;2.75;;;;;17.12;42.92;100795.09;4959911;28;46093;-68
2022/05/31 05:51:44;;;;;;;;;3.00;2.75;;;;;17.18;42.80;100803.69;4960198;28;45295;-68
2022/05/31 05:54:09;;;;;;;;;4.00;4.00;;;;;17.16;43.12;100804.75;4941654;28;45323;-68
2022/05/31 05:56:34;;;;;;;;;2.75;2.75;;;;;17.18;42.43;100803.69;4949320;28;45162;-68
2022/05/31 05:59:00;;;;;;;;;4.00;3.00;;;;;17.20;42.30;100809.88;4949143;28;45287;-68
2022/05/31 06:01:37;;;;;;;;;3.50;3.50;;;;;17.21;42.47;100817.00;4938391;28;45348;-68
2022/05/31 06:04:38;;;;;;;;;4.00;3.00;;;;;17.21;42.76;100813.44;4950134;28;45503;-68
2022/05/31 06:07:16;;;;;;;;;4.00;4.00;;;;;17.23;42.51;100822.31;4932836;28;45893;-68
2022/05/31 06:09:51;;;;;;;;;4.25;3.25;;;;;17.24;42.71;100826.75;4943402;28;46531;-68
2022/05/31 06:12:22;;;;;;;;;4.25;4.25;;;;;17.21;43.08;100813.44;4944514;28;45158;-68
2022/05/31 06:14:53;;;;;;;;;4.50;3.00;;;;;17.26;43.11;100818.56;4985860;28;45466;-68
2022/05/31 06:17:23;;;;;;;;;3.50;3.25;;;;;17.25;42.83;100811.44;4955868;28;45808;-68
2022/05/31 06:19:49;;;;;;;;;5.25;3.50;;;;;17.27;42.83;100812.22;4949465;28;46385;-68
2022/05/31 06:22:15;;;;;;;;;3.75;3.75;;;;;17.28;42.78;100817.50;4932523;28;45392;-68
2022/05/31 06:24:42;;;;;;;;;4.50;4.50;;;;;17.25;43.03;100814.13;4933647;28;45432;-68
2022/05/31 06:27:07;;;;;;;;;8.00;5.00;;;;;17.22;42.64;100817.88;4958760;28;45387;-68
2022/05/31 06:29:33;;;;;;;;;5.25;4.25;;;;;17.16;43.07;100815.56;4940887;28;45547;-68
2022/05/31 06:31:58;;;;;;;;;5.25;5.25;;;;;17.22;42.96;100825.97;4990290;28;45534;-68
2022/05/31 06:34:24;;;;;;;;;4.25;4.25;;;;;17.25;43.37;100824.94;4954940;28;45447;-68
2022/05/31 06:37:02;;;;;;;;;5.50;3.50;;;;;17.26;43.31;100819.44;4939765;28;45629;-68
2022/05/31 06:39:27;;;;;;;;;5.50;5.25;;;;;17.25;43.20;100819.53;4940442;28;45322;-68
2022/05/31 06:41:55;;;;;;;;;7.00;5.75;;;;;17.32;43.39;100829.00;4943492;28;45376;-68
2022/05/31 06:44:20;;;;;;;;;6.00;4.50;;;;;17.34;43.54;100829.75;4938589;28;45423;-68
2022/05/31 06:46:45;;;;;;;;;5.25;4.75;;;;;17.34;43.18;100830.66;4940247;28;45233;-68
2022/05/31 06:49:11;;;;;;;;;7.00;6.25;;;;;17.33;43.40;100820.81;4938356;28;45415;-68
2022/05/31 06:57:04;;;;;;;;;9.50;8.00;;;;;17.50;42.83;100832.44;4955849;28;45213;-68
2022/05/31 06:59:29;;;;;;;;;6.25;5.25;;;;;17.53;42.82;100832.25;4955595;28;45459;-68
2022/05/31 07:02:03;;;;;;;;;6.50;6.50;;;;;17.52;42.67;100827.78;4943246;28;45265;-68
2022/05/31 07:04:29;;;;;;;;;8.00;6.25;;;;;17.49;42.30;100827.97;4949163;28;45315;-68
2022/05/31 07:06:55;;;;;;;;;6.00;5.50;;;;;17.50;42.83;100835.13;4948522;28;45340;-68
2022/05/31 07:09:20;;;;;;;;;7.75;6.25;;;;;17.48;42.88;100829.81;4934338;28;45296;-68
2022/05/31 07:11:45;;;;;;;;;8.25;6.25;;;;;17.48;42.66;100828.97;4935045;28;45209;-68
2022/05/31 07:14:10;;;;;;;;;6.00;6.00;;;;;17.54;42.98;100831.25;4939783;28;45592;-68
2022/05/31 07:16:36;;;;;;;;;9.25;6.50;;;;;17.59;43.14;100837.25;4947917;28;45532;-68
2022/05/31 07:19:01;;;;;;;;;8.50;5.75;;;;;17.62;43.37;100836.22;4948575;28;46496;-68
2022/05/31 07:21:26;;;;;;;;;6.25;5.25;;;;;17.65;42.79;100836.03;4946390;28;45687;-68
2022/05/31 07:23:53;;;;;;;;;6.25;6.25;;;;;17.61;43.13;100824.56;4941753;28;45501;-68
2022/05/31 07:26:20;;;;;;;;;7.50;5.00;;;;;17.70;42.81;100834.78;4931723;28;46185;-68
2022/05/31 07:28:45;;;;;;;;;6.50;6.50;;;;;17.72;42.94;100840.09;4949203;28;46106;-68
2022/05/31 07:31:11;;;;;;;;;5.00;5.00;;;;;17.76;42.25;100837.13;4932087;28;46795;-68
2022/05/31 07:33:37;;;;;;;;;6.00;6.00;;;;;17.80;42.43;100839.63;4948239;28;45463;-68
2022/05/31 07:36:04;;;;;;;;;6.50;3.75;;;;;17.76;41.96;100833.56;4937781;28;45473;-68
2022/05/31 07:38:29;;;;;;;;;4.75;4.75;;;;;17.77;41.76;100832.56;4947118;28;46597;-68
2022/05/31 07:40:55;;;;;;;;;6.00;5.00;;;;;17.85;41.50;100841.06;4942108;28;45481;-68
2022/05/31 07:43:21;;;;;;;;;5.00;5.00;;;;;17.83;41.56;100832.22;4948514;28;45402;-68
2022/05/31 07:45:46;;;;;;;;;5.50;5.50;;;;;17.88;41.67;100840.94;4974035;28;45559;-68
2022/05/31 07:48:12;;;;;;;;;6.00;6.00;;;;;17.91;41.66;100848.84;4937381;28;48502;-68
2022/05/31 07:50:38;;;;;;;;;7.00;7.00;;;;;17.89;41.62;100848.06;4946111;28;45336;-68
2022/05/31 07:53:03;;;;;;;;;9.25;5.50;;;;;17.94;41.70;100848.66;4940016;28;45493;-68
2022/05/31 07:55:29;;;;;;;;;7.00;5.75;;;;;17.91;41.17;100837.19;4942241;28;45501;-68
2022/05/31 08:00:40;;;;;;;;;4.25;3.50;;;;;18.00;40.87;100860.03;4942312;28;45700;-68
2022/05/31 08:03:06;;;;;;;;;3.75;3.75;;;;;18.01;41.24;100854.56;4939080;28;45839;-68
2022/05/31 08:05:32;;;;;;;;;7.00;5.00;;;;;18.04;40.50;100856.19;4938908;28;45452;-68
2022/05/31 08:07:58;;;;;;;;;4.50;4.50;;;;;18.01;41.11;100846.44;4946210;28;45836;-68
2022/05/31 08:10:23;;;;;;;;;5.75;4.50;;;;;18.03;41.83;100851.75;4958358;28;45256;-68
2022/05/31 08:12:49;;;;;;;;;4.75;4.25;;;;;18.02;41.18;100850.88;4943853;28;45224;-68
2022/05/31 08:15:15;;;;;;;;;2.75;2.75;;;;;18.03;41.81;100852.63;4953318;28;45158;-68
2022/05/31 08:17:42;;;;;;;;;3.25;3.25;;;;;18.05;40.88;100845.28;4956541;28;46047;-68
2022/05/31 08:20:08;;;;;;;;;2.75;2.75;;;;;18.08;41.35;100855.91;4958553;28;45318;-68
2022/05/31 08:22:35;;;;;;;;;4.00;4.00;;;;;18.10;40.46;100845.00;4957077;28;45367;-67
2022/05/31 08:25:02;;;;;;;;;4.75;4.00;;;;;18.17;40.43;100853.59;4947634;28;45393;-67
2022/05/31 08:27:28;;;;;;;;;4.00;4.00;;;;;18.15;40.49;100850.97;4938601;28;45436;-68
2022/05/31 08:29:53;;;;;;;;;5.00;4.75;;;;;18.19;40.33;100847.09;4958119;28;45158;-68
2022/05/31 08:32:18;;;;;;;;;4.25;4.25;;;;;18.18;41.10;100855.34;4932661;28;45389;-68
2022/05/31 08:34:44;;;;;;;;;3.75;3.75;;;;;18.17;41.46;100848.19;4925937;28;45210;-68
2022/05/31 08:37:10;;;;;;;;;2.75;2.00;;;;;18.22;40.82;100852.31;4952071;28;46101;-73
2022/05/31 08:39:35;;;;;;;;;3.00;3.00;;;;;18.22;41.59;100844.22;4950789;28;45363;-72
2022/05/31 08:42:07;;;;;;;;;4.25;4.25;;;;;18.27;41.57;100850.19;4945092;28;45371;-69
2022/05/31 08:45:15;;;;;;;;;3.50;3.50;;;;;18.30;40.67;100846.44;4941274;28;45311;-73
2022/05/31 08:47:46;;;;;;;;;6.00;4.50;;;;;18.33;41.46;100854.38;4948437;28;45567;-74
2022/05/31 08:53:07;;;;;;;;;4.00;4.00;;;;;18.39;40.92;100850.41;4962200;28;45368;-72
2022/05/31 08:58:46;;;;;;;;;3.50;3.50;;;;;18.47;40.77;100854.34;4948947;28;45380;-72
2022/05/31 09:01:18;;;;;;;;;2.75;2.75;;;;;18.51;40.03;100846.94;4947001;28;45687;-72
2022/05/31 09:03:48;;;;;;;;;4.00;3.75;;;;;18.52;40.62;100849.50;4947541;28;45540;-74
2022/05/31 09:06:25;;;;;;;;;3.00;3.00;;;;;18.59;41.11;100857.25;4935942;28;45569;-73
2022/05/31 09:09:03;;;;;;;;;3.00;3.00;;;;;18.63;39.84;100845.28;4934964;28;47099;-73
2022/05/31 09:11:34;;;;;;;;;3.00;2.25;;;;;18.66;40.65;100850.47;4936676;28;45518;-72
2022/05/31 09:14:35;;;;;;;;;4.00;3.75;;;;;18.67;40.02;100838.69;4942915;28;46452;-73
2022/05/31 09:17:43;;;;;;;;;3.75;3.00;;;;;18.74;39.66;100842.72;4948097;28;45936;-73
2022/05/31 09:20:20;;;;;;;;;4.00;3.75;;;;;18.70;39.65;100838.50;4960546;28;45451;-73
2022/05/31 09:22:47;;;;;;;;;4.50;3.00;;;;;18.75;39.82;100839.06;4936116;28;45250;-73
2022/05/31 09:25:13;;;;;;;;;3.75;3.75;;;;;18.80;38.85;100846.88;4940832;28;45324;-74
2022/05/31 09:27:48;;;;;;;;;3.00;3.00;;;;;18.80;39.40;100855.84;4953424;28;45455;-74
2022/05/31 09:30:28;;;;;;;;;4.75;4.75;;;;;18.86;39.49;100850.09;4939144;28;46569;-74
2022/05/31 09:33:11;;;;;;;;;3.00;3.00;;;;;18.90;38.77;100842.63;4940835;28;45647;-74
2022/05/31 09:36:09;;;;;;;;;2.75;2.50;;;;;18.91;38.76;100840.78;4941950;28;45260;-74
2022/05/31 09:38:56;;;;;;;;;6.00;5.25;;;;;18.97;39.39;100843.09;4953646;28;45419;-74
2022/05/31 09:41:44;;;;;;;;;3.00;3.00;;;;;19.03;38.99;100848.09;4948998;28;45640;-71
2022/05/31 09:44:17;;;;;;;;;2.75;2.75;;;;;19.04;38.68;100833.59;4941357;28;45429;-72
2022/05/31 09:46:52;;;;;;;;;2.00;2.00;;;;;19.10;38.69;100835.91;4937961;28;45561;-70
2022/05/31 09:49:36;;;;;;;;;2.00;2.00;;;;;19.17;37.85;100839.91;4940955;28;46309;-69
2022/05/31 09:52:07;;;;;;;;;3.00;3.00;;;;;19.18;38.45;100841.66;4967847;28;47133;-69
2022/05/31 09:58:09;;;;;;;;;2.00;2.00;;;;;19.38;37.78;100836.75;4928644;28;45335;-69
2022/05/31 10:01:02;;;;;;;;;3.00;3.00;;;;;19.36;38.40;100822.44;4951271;28;45497;-69
2022/05/31 10:03:37;;;;;;;;;3.00;2.00;;;;;19.46;37.85;100834.38;4959729;28;46027;-69
2022/05/31 10:06:11;;;;;;;;;2.50;2.50;;;;;19.46;37.79;100828.97;4960157;28;45256;-69
2022/05/31 10:08:36;;;;;;;;;4.00;3.00;;;;;19.47;37.55;100824.44;4960146;28;45320;-69
2022/05/31 10:11:09;;;;;;;;;2.00;2.00;;;;;19.48;38.02;100834.25;4959735;28;45489;-69
2022/05/31 10:13:40;;;;;;;;;3.25;2.00;;;;;19.53;38.34;100830.28;4932034;28;48261;-69
2022/05/31 10:16:23;;;;;;;;;3.00;3.00;;;;;19.56;37.93;100830.09;4940513;28;45391;-69
2022/05/31 10:18:57;;;;;;;;;2.50;2.50;;;;;19.50;37.76;100819.66;4937081;28;45419;-73
2022/05/31 10:21:43;;;;;;;;;2.00;2.00;;;;;19.51;37.50;100826.84;4953093;28;45422;-73
2022/05/31 10:24:32;;;;;;;;;3.25;3.00;;;;;19.57;37.46;100834.50;4966606;28;45426;-73
2022/05/31 10:27:19;;;;;;;;;2.75;2.75;;;;;19.57;37.07;100825.53;4940969;28;45404;-73
2022/05/31 10:29:57;;;;;;;;;3.00;1.25;;;;;19.59;36.76;100821.72;4949986;28;45316;-73
2022/05/31 10:32:40;;;;;;;;;4.00;2.75;;;;;19.57;36.74;100818.25;4934509;28;45399;-71
2022/05/31 10:35:08;;;;;;;;;1.25;1.25;;;;;19.65;36.55;100825.88;4938860;28;46360;-70
2022/05/31 10:37:34;;;;;;;;;3.75;3.75;;;;;19.67;35.97;100826.63;4942876;28;45442;-71
2022/05/31 10:40:04;;;;;;;;;3.00;3.00;;;;;19.70;36.26;100825.56;4952114;28;45326;-71
2022/05/31 10:42:32;;;;;;;;;3.00;3.00;;;;;19.71;36.60;100830.88;4953958;28;45367;-71
2022/05/31 10:45:02;;;;;;;;;2.00;2.00;;;;;19.69;36.80;100823.81;4951180;28;45422;-72
2022/05/31 10:47:28;;;;;;;;;3.00;3.00;;;;;19.76;36.65;100825.16;4952813;28;45307;-72
2022/05/31 10:49:54;;;;;;;;;2.50;2.00;;;;;19.80;36.74;100829.38;4950214;28;45473;-72
2022/05/31 10:52:24;;;;;;;;;3.50;2.50;;;;;19.82;36.11;100835.56;4933751;28;45340;-72
2022/05/31 10:55:17;;;;;;;;;2.00;2.00;;;;;19.84;36.58;100839.03;4928197;28;45384;-72
2022/05/31 10:58:18;;;;;;;;;2.00;2.00;;;;;19.89;36.07;100844.13;4957552;28;45262;-72
2022/05/31 11:00:57;;;;;;;;;2.00;2.00;;;;;19.90;36.43;100838.59;4947889;28;45309;-72
2022/05/31 11:03:47;;;;;;;;;1.00;1.00;;;;;19.89;35.89;100820.59;4958191;28;45335;-72
2022/05/31 11:06:22;;;;;;;;;2.25;2.00;;;;;19.91;35.80;100836.75;4939907;28;47208;-71
2022/05/31 11:12:05;;;;;;;;;2.00;2.00;;;;;19.94;35.77;100842.81;4950175;28;45438;-74
2022/05/31 11:14:44;;;;;;;;;0.25;0.25;;;;;19.96;36.19;100835.47;4958940;28;45390;-72
2022/05/31 11:17:40;;;;;;;;;3.75;2.00;;;;;20.00;35.79;100841.53;4947349;28;45938;-72
2022/05/31 11:20:18;;;;;;;;;1.00;1.00;;;;;20.03;35.73;100843.16;4956130;28;45399;-73
2022/05/31 11:22:49;;;;;;;;;2.75;2.00;;;;;20.04;35.86;100840.31;4957270;28;45329;-72
2022/05/31 11:25:51;;;;;;;;;2.00;2.00;;;;;20.07;35.53;100840.13;4929085;28;46763;-73
2022/05/31 11:28:32;;;;;;;;;2.00;2.00;;;;;20.04;36.28;100834.91;4947049;28;46301;-72
2022/05/31 11:31:12;;;;;;;;;1.25;1.25;;;;;20.12;35.96;100843.38;4950123;28;45448;-73
2022/05/31 11:33:58;;;;;;;;;3.00;3.00;;;;;20.16;35.44;100844.00;4953020;28;45359;-73
2022/05/31 11:36:33;;;;;;;;;2.50;1.75;;;;;20.19;35.78;100843.78;4958755;28;45244;-73
2022/05/31 11:39:11;;;;;;;;;2.00;2.00;;;;;20.21;35.97;100847.25;4958541;28;46101;-72
2022/05/31 11:42:01;;;;;;;;;2.00;1.75;;;;;20.23;35.64;100844.44;4951590;28;45445;-72
2022/05/31 11:44:45;;;;;;;;;5.00;2.75;;;;;20.25;35.73;100845.22;4936775;28;45296;-73
2022/05/31 11:47:28;;;;;;;;;17.50;16.25;;;;;20.21;34.83;100838.28;4923040;28;46277;-73
2022/05/31 11:50:09;;;;;;;;;8.25;8.00;;;;;20.26;35.16;100844.22;4962312;28;48316;-72
2022/05/31 11:52:44;;;;;;;;;1.25;1.25;;;;;20.27;35.30;100841.41;4938719;28;45556;-72
2022/05/31 11:55:28;;;;;;;;;4.25;2.00;;;;;20.28;35.16;100855.81;4941580;28;45163;-72
2022/05/31 11:58:06;;;;;;;;;2.00;2.00;;;;;20.16;35.63;100828.63;4929032;28;45217;-72
2022/05/31 12:00:40;;;;;;;;;1.75;1.75;;;;;20.20;35.51;100834.69;4941473;28;45729;-72
2022/05/31 12:03:15;;;;;;;;;1.75;1.75;;;;;20.29;34.91;100847.56;4940824;28;45434;-72
2022/05/31 12:05:45;;;;;;;;;3.00;3.00;;;;;20.22;35.16;100835.44;4954054;28;45222;-72
2022/05/31 12:08:27;;;;;;;;;2.00;2.00;;;;;20.29;35.13;100841.28;4933885;28;45570;-72